Cedar Crossing, Georgia
Current Conditions -  °F | °C
As of 11:35 AM on Saturday 22 Nov 2014 (Local Time) from KVDI Reporting Station
Scattered Clouds Scattered Clouds  
Wind Chill: 61°   Ceiling: Unl
Heat Index: 61°   Visibility: 10mi
Dew Point: 43°   Wind: 13mph
Humidity: 52%   Direction: 70°ENE
Pressure: 30.42"   Gusts: 16mph
Location:  32.1105°N, 82.281°W
Report Text: KVDI 221635Z AUTO 07011G14KT 10SM SCT049 SCT055 SCT065 16/06 A3042 RMK AO2
Loading
Personal Weather Stations






























Interactive Weather Map New forecast layout! Learn more

10-Day Weather Forecast

Advertisements
Track Severe Weather on mobile